CZ-0030 weather

Area Of Fire And Rescue Force Heliport
Mělník, Central Bohemian Region, Czech Republic

Public forecast

Using degrees Celsius for public forecast. Weather courtesy of forecast.io.

Closest aviation weather report (METAR) to Area Of Fire And Rescue Force Heliport

Closest report is Vodochody Airport, 8.8 nm (16.4 km) SSW. Retrieved 2019/11/21 13:00 UTC (42 minutes ago):

LKVO 211300Z 09007KT 6000 -RA FEW007 BKN018 OVC023 11/10 Q1008

Closest aviation forecast (TAF) to Area Of Fire And Rescue Force Heliport

Closest forecast is Kbely Air Base, 14.0 nm (26.0 km) S. Retrieved 2019/11/21 12:00 UTC (2 hours ago):

TAF LKKB 211100Z 2112/2212 05008KT 3000 BR BKN004 OVC015 TEMPO 2112/2122 1500 RA BR OVC007 BECMG 2118/2120 19006KT BECMG 2121/2123 9999 SCT025 BECMG 2202/2204 4000 BR SCT020